HTDA/DAR METAR and TAF weather

Enter ICAO airport designator
Station Type Date Time Source
HTDA METAR 2018/01/19 22:00 UTC NOAA

HTDA 192200Z 01016KT 9999 BKN012 26/22 Q1010 NOSIG


Station Type Date Time Source
HTDA Decoded METAR 2018/01/19 22:00 UTC NOAA

Dar Es Salaam Airport, Tanzania (HTDA) 06-52S 039-12E 55M
Jan 19, 2018 - 05:00 PM EST / 2018.01.19 2200 UTC
Wind: from the N (010 degrees) at 18 MPH (16 KT):0
Visibility: greater than 7 mile(s):0
Sky conditions: mostly cloudy
Temperature: 78 F (26 C)
Dew Point: 71 F (22 C)
Relative Humidity: 78%
Pressure (altimeter): 29.83 in. Hg (1010 hPa)
ob: HTDA 192200Z 01016KT 9999 BKN012 26/22 Q1010 NOSIG
cycle: 22

Station Type Date Time Source
HTDA TAF 2018/01/19 18:27 UTC NOAA

TAF TAF HTDA 191700Z 1918/2024 36015KT 9999 BKN017


Example: see airport list